createdAt,value
2022-11-27T00:02:04.962Z,102511.06
2022-11-27T00:04:26.981Z,102521.16
2022-11-27T00:06:48.769Z,102506.09
2022-11-27T00:09:15.302Z,102511.84
2022-11-27T00:11:40.058Z,102503.88
2022-11-27T00:14:02.130Z,102494.28
2022-11-27T00:16:25.826Z,102497.28
2022-11-27T00:18:49.029Z,102494.00
2022-11-27T00:21:22.919Z,102491.53
2022-11-27T00:23:45.305Z,102476.19
2022-11-27T00:26:08.360Z,102472.63
2022-11-27T00:28:30.894Z,102472.91
2022-11-27T00:30:52.722Z,102468.50
2022-11-27T00:33:14.528Z,102478.88
2022-11-27T00:35:38.419Z,102470.94
2022-11-27T00:38:00.260Z,102464.91
2022-11-27T00:40:22.062Z,102471.47
2022-11-27T00:42:43.872Z,102466.25
2022-11-27T00:45:06.136Z,102450.94
2022-11-27T00:47:28.096Z,102456.94
2022-11-27T00:49:50.523Z,102458.31
2022-11-27T00:52:12.941Z,102455.56
2022-11-27T00:54:34.858Z,102459.66
2022-11-27T00:56:56.612Z,102451.44
2022-11-27T00:59:18.521Z,102458.03
2022-11-27T01:01:43.089Z,102454.72
2022-11-27T01:04:08.004Z,102453.09
2022-11-27T01:06:31.145Z,102447.88
2022-11-27T01:08:53.389Z,102450.84
2022-11-27T01:11:22.497Z,102446.22
2022-11-27T01:13:45.743Z,102448.41
2022-11-27T01:16:18.051Z,102445.66
2022-11-27T01:18:42.784Z,102445.66
2022-11-27T01:21:06.057Z,102447.81
2022-11-27T01:23:28.358Z,102437.41
2022-11-27T01:25:50.600Z,102433.03
2022-11-27T01:28:12.791Z,102428.31
2022-11-27T01:30:38.378Z,102435.41
2022-11-27T01:33:00.112Z,102435.91
2022-11-27T01:35:21.950Z,102438.06
2022-11-27T01:37:43.743Z,102443.00
2022-11-27T01:40:06.843Z,102426.28
2022-11-27T01:42:28.663Z,102435.00
2022-11-27T01:44:54.971Z,102429.78
2022-11-27T01:47:30.008Z,102430.63
2022-11-27T01:49:56.632Z,102422.13
2022-11-27T01:52:27.821Z,102420.50
2022-11-27T01:55:04.947Z,102417.75
2022-11-27T01:57:48.572Z,102422.13
2022-11-27T02:00:14.844Z,102415.84
2022-11-27T02:02:36.938Z,102412.28
2022-11-27T02:04:58.953Z,102406.53
2022-11-27T02:07:21.441Z,102401.88
2022-11-27T02:09:43.583Z,102384.41
2022-11-27T02:12:25.207Z,102368.56
2022-11-27T02:14:50.321Z,102357.63
2022-11-27T02:17:37.883Z,102352.16
2022-11-27T02:20:44.240Z,102352.16
2022-11-27T02:23:45.268Z,102349.41
2022-11-27T02:27:01.063Z,102336.56
2022-11-27T02:29:27.142Z,102327.78
2022-11-27T02:32:08.768Z,102315.75
2022-11-27T02:34:45.741Z,102311.38
2022-11-27T02:37:18.754Z,102301.53
2022-11-27T02:40:32.344Z,102291.69
2022-11-27T02:43:04.014Z,102292.78
2022-11-27T02:45:35.057Z,102297.97
2022-11-27T02:47:58.540Z,102303.19
2022-11-27T02:50:25.709Z,102304.81
2022-11-27T02:52:53.350Z,102307.56
2022-11-27T02:55:23.182Z,102310.03
2022-11-27T02:57:47.268Z,102313.34
2022-11-27T03:00:11.860Z,102322.34
2022-11-27T03:02:57.219Z,102321.00
2022-11-27T03:05:23.652Z,102318.53
2022-11-27T03:07:52.434Z,102314.72
2022-11-27T03:10:26.906Z,102303.53
2022-11-27T03:12:49.979Z,102303.22
2022-11-27T03:15:13.232Z,102298.31
2022-11-27T03:18:01.609Z,102302.44
2022-11-27T03:20:32.973Z,102298.88
2022-11-27T03:22:56.182Z,102304.09
2022-11-27T03:25:18.078Z,102307.38
2022-11-27T03:27:50.227Z,102299.75
2022-11-27T03:30:13.932Z,102290.19
2022-11-27T03:32:36.008Z,102299.25
2022-11-27T03:34:57.912Z,102288.03
2022-11-27T03:37:20.225Z,102283.13
2022-11-27T03:39:43.580Z,102284.75
2022-11-27T03:42:34.203Z,102282.31
2022-11-27T03:45:24.968Z,102285.59
2022-11-27T03:48:28.585Z,102291.09
2022-11-27T03:51:24.531Z,102288.06
2022-11-27T03:54:02.038Z,102286.97
2022-11-27T03:56:41.943Z,102287.81
2022-11-27T03:59:11.618Z,102274.13
2022-11-27T04:01:33.931Z,102278.50
2022-11-27T04:03:55.855Z,102270.03
2022-11-27T04:06:18.065Z,102268.09
2022-11-27T04:08:40.912Z,102265.66
2022-11-27T04:11:02.937Z,102270.31
2022-11-27T04:13:24.716Z,102270.31
2022-11-27T04:15:46.724Z,102278.00
2022-11-27T04:18:08.557Z,102264.03
2022-11-27T04:20:30.529Z,102265.69
2022-11-27T04:22:52.297Z,102262.66
2022-11-27T04:25:14.150Z,102247.09
2022-11-27T04:27:36.066Z,102256.94
2022-11-27T04:29:58.672Z,102258.56
2022-11-27T04:32:20.565Z,102256.66
2022-11-27T04:34:42.686Z,102249.84
2022-11-27T04:37:04.616Z,102251.75
2022-11-27T04:39:27.246Z,102257.22
2022-11-27T04:41:49.194Z,102263.22
2022-11-27T04:44:12.537Z,102255.88
2022-11-27T04:46:34.611Z,102266.53
2022-11-27T04:48:56.492Z,102267.34
2022-11-27T04:51:18.449Z,102264.59
2022-11-27T04:53:40.263Z,102261.88
2022-11-27T04:56:02.062Z,102258.31
2022-11-27T04:58:23.987Z,102260.78
2022-11-27T05:00:46.046Z,102253.13
2022-11-27T05:03:08.151Z,102242.19
2022-11-27T05:05:30.177Z,102240.28
2022-11-27T05:07:52.062Z,102224.91
2022-11-27T05:10:14.026Z,102224.91
2022-11-27T05:12:35.899Z,102231.25
2022-11-27T05:15:00.692Z,102223.03
2022-11-27T05:17:25.919Z,102220.28
2022-11-27T05:19:47.780Z,102229.31
2022-11-27T05:22:09.764Z,102222.75
2022-11-27T05:24:32.016Z,102198.38
2022-11-27T05:26:55.430Z,102206.88
2022-11-27T05:29:18.185Z,102210.72
2022-11-27T05:31:41.341Z,102206.88
2022-11-27T05:34:04.818Z,102204.38
2022-11-27T05:36:27.074Z,102200.56
2022-11-27T05:38:48.929Z,102194.28
2022-11-27T05:41:11.402Z,102187.97
2022-11-27T05:43:33.317Z,102198.66
2022-11-27T05:45:55.186Z,102190.44
2022-11-27T05:48:16.996Z,102184.69
2022-11-27T05:50:39.216Z,102184.69
2022-11-27T05:53:01.000Z,102182.78
2022-11-27T05:55:22.775Z,102186.34
2022-11-27T05:57:44.557Z,102179.22
2022-11-27T06:00:08.043Z,102180.59
2022-11-27T06:02:30.750Z,102187.16
2022-11-27T06:04:52.791Z,102175.66
2022-11-27T06:07:14.673Z,102170.72
2022-11-27T06:09:39.620Z,102175.94
2022-11-27T06:12:01.481Z,102171.28
2022-11-27T06:14:23.590Z,102171.03
2022-11-27T06:16:45.534Z,102169.09
2022-11-27T06:19:08.825Z,102169.66
2022-11-27T06:21:30.665Z,102176.22
2022-11-27T06:23:57.216Z,102160.63
2022-11-27T06:26:24.393Z,102154.34
2022-11-27T06:28:47.827Z,102149.94
2022-11-27T06:31:18.493Z,102152.13
2022-11-27T06:33:40.745Z,102143.91
2022-11-27T06:36:05.040Z,102149.94
2022-11-27T06:38:26.893Z,102137.91
2022-11-27T06:40:48.711Z,102143.38
2022-11-27T06:43:10.546Z,102138.16
2022-11-27T06:45:32.306Z,102136.25
2022-11-27T06:47:54.137Z,102137.06
2022-11-27T06:50:16.012Z,102141.72
2022-11-27T06:52:40.615Z,102151.28
2022-11-27T06:55:02.722Z,102151.03
2022-11-27T06:57:24.656Z,102141.19
2022-11-27T06:59:46.479Z,102153.78
2022-11-27T07:02:15.088Z,102148.03
2022-11-27T07:04:37.232Z,102135.97
2022-11-27T07:06:59.198Z,102146.66
2022-11-27T07:09:21.033Z,102140.88
2022-11-27T07:11:42.855Z,102140.63
2022-11-27T07:14:06.854Z,102135.97
2022-11-27T07:16:32.054Z,102131.28
2022-11-27T07:18:58.579Z,102134.03
2022-11-27T07:24:36.821Z,102123.09
2022-11-27T07:38:04.859Z,102107.75
2022-11-27T07:43:52.712Z,102096.81
2022-11-27T07:46:38.452Z,102104.19
2022-11-27T07:49:01.885Z,102100.66
2022-11-27T07:51:23.873Z,102094.06
2022-11-27T07:53:45.974Z,102098.41
2022-11-27T07:56:11.704Z,102099.78
2022-11-27T07:58:33.996Z,102087.19
2022-11-27T08:00:56.504Z,102086.38
2022-11-27T08:03:18.524Z,102082.53
2022-11-27T08:05:40.466Z,102078.72
2022-11-27T08:08:04.630Z,102080.63
2022-11-27T08:10:27.578Z,102072.41
2022-11-27T08:12:49.580Z,102063.91
2022-11-27T08:15:11.952Z,102071.31
2022-11-27T08:17:34.102Z,102072.13
2022-11-27T08:19:56.012Z,102060.09
2022-11-27T08:22:19.632Z,102066.38
2022-11-27T08:24:42.755Z,102061.72
2022-11-27T08:27:05.265Z,102058.97
2022-11-27T08:29:32.593Z,102061.44
2022-11-27T08:31:55.986Z,102052.94
2022-11-27T08:34:17.924Z,102058.41
2022-11-27T08:36:39.950Z,102054.06
2022-11-27T08:39:01.927Z,102042.28
2022-11-27T08:41:23.852Z,102039.81
2022-11-27T08:43:45.818Z,102040.63
2022-11-27T08:46:08.421Z,102039.81
2022-11-27T08:48:30.525Z,102046.91
2022-11-27T08:50:53.092Z,102037.63
2022-11-27T08:53:16.256Z,102042.28
2022-11-27T08:55:38.206Z,102043.63
2022-11-27T08:58:00.127Z,102036.22
2022-11-27T09:00:27.525Z,102030.47
2022-11-27T09:02:49.902Z,102023.91
2022-11-27T09:05:11.908Z,102031.84
2022-11-27T09:07:33.816Z,102023.34
2022-11-27T09:09:55.666Z,102014.03
2022-11-27T09:12:17.562Z,102018.41
2022-11-27T09:14:40.134Z,102017.28
2022-11-27T09:17:02.284Z,102018.94
2022-11-27T09:19:25.992Z,102021.69
2022-11-27T09:21:50.863Z,102015.09
2022-11-27T09:24:12.849Z,102014.00
2022-11-27T09:26:36.710Z,102009.34
2022-11-27T09:28:59.508Z,102001.94
2022-11-27T09:31:23.008Z,102014.25
2022-11-27T09:33:45.965Z,102016.72
2022-11-27T09:36:12.697Z,102026.56
2022-11-27T09:38:34.981Z,102023.03
2022-11-27T09:41:07.481Z,102027.66
2022-11-27T09:43:40.506Z,102018.88
2022-11-27T09:46:17.518Z,102018.31
2022-11-27T09:48:46.607Z,102029.81
2022-11-27T09:52:00.143Z,102031.44
2022-11-27T09:54:37.261Z,102026.50
2022-11-27T09:56:59.712Z,102025.13
2022-11-27T09:59:36.585Z,102030.84
2022-11-27T10:01:58.662Z,102020.16
2022-11-27T10:04:21.835Z,102022.84
2022-11-27T10:06:58.917Z,102018.72
2022-11-27T10:09:39.849Z,102015.94
2022-11-27T10:12:18.297Z,102010.72
2022-11-27T10:14:46.219Z,102006.03
2022-11-27T10:17:23.260Z,102005.19
2022-11-27T10:20:14.534Z,101994.16
2022-11-27T10:23:00.356Z,101985.06
2022-11-27T10:25:49.315Z,101979.31
2022-11-27T10:28:27.833Z,101973.53
2022-11-27T10:31:31.457Z,101964.44
2022-11-27T10:34:04.335Z,101967.19
2022-11-27T10:36:31.976Z,101965.25
2022-11-27T10:38:58.056Z,101953.72
2022-11-27T10:41:49.205Z,101957.53
2022-11-27T10:44:27.995Z,101947.38
2022-11-27T10:46:56.798Z,101947.38
2022-11-27T10:49:19.898Z,101938.53
2022-11-27T10:51:42.117Z,101934.13
2022-11-27T10:54:12.206Z,101943.72
2022-11-27T10:57:08.958Z,101945.88
2022-11-27T10:59:41.267Z,101936.53
2022-11-27T11:02:05.774Z,101931.59
2022-11-27T11:04:39.188Z,101931.81
2022-11-27T11:07:01.498Z,101926.88
2022-11-27T11:09:30.476Z,101921.06
2022-11-27T11:11:52.604Z,101917.81
2022-11-27T11:14:25.377Z,101922.72
2022-11-27T11:16:47.862Z,101918.31
2022-11-27T11:19:37.767Z,101911.75
2022-11-27T11:22:08.102Z,101900.22
2022-11-27T11:24:38.092Z,101896.66
2022-11-27T11:27:11.137Z,101902.16
2022-11-27T11:29:42.963Z,101886.50
2022-11-27T11:32:21.309Z,101890.06
2022-11-27T11:35:00.612Z,101884.88
2022-11-27T11:37:33.803Z,101879.09
2022-11-27T11:40:16.292Z,101874.72
2022-11-27T11:42:51.060Z,101878.53
2022-11-27T11:45:16.706Z,101867.56
2022-11-27T11:47:53.985Z,101859.34
2022-11-27T11:50:23.288Z,101864.53
2022-11-27T11:53:28.974Z,101861.53
2022-11-27T11:56:27.919Z,101855.19
2022-11-27T11:59:13.939Z,101849.41
2022-11-27T12:02:06.838Z,101845.28
2022-11-27T12:05:10.330Z,101841.44
2022-11-27T12:07:55.436Z,101833.19
2022-11-27T12:10:47.171Z,101816.19
2022-11-27T12:13:44.572Z,101806.63
2022-11-27T12:16:34.375Z,101806.63
2022-11-27T12:19:11.312Z,101790.97
2022-11-27T12:22:08.148Z,101786.28
2022-11-27T12:24:44.907Z,101774.50
2022-11-27T12:27:54.414Z,101764.06
2022-11-27T12:30:36.158Z,101749.78
2022-11-27T12:33:34.925Z,101745.66
2022-11-27T12:36:32.683Z,101741.25
2022-11-27T12:39:29.573Z,101737.69
2022-11-27T12:42:22.401Z,101751.13
2022-11-27T12:45:00.434Z,101753.59
2022-11-27T12:47:47.754Z,101745.38
2022-11-27T12:50:36.917Z,101742.31
2022-11-27T12:53:23.157Z,101745.84
2022-11-27T12:56:14.052Z,101750.25
2022-11-27T12:58:45.157Z,101747.50
2022-11-27T13:01:15.766Z,101735.13
2022-11-27T13:04:18.405Z,101729.84
2022-11-27T13:07:05.772Z,101725.69
2022-11-27T13:09:36.743Z,101717.97
2022-11-27T13:12:01.255Z,101703.97
2022-11-27T13:14:25.518Z,101695.19
2022-11-27T13:17:03.130Z,101697.13
2022-11-27T13:19:49.114Z,101686.97
2022-11-27T13:22:27.539Z,101698.75
2022-11-27T13:24:49.619Z,101717.69
2022-11-27T13:27:21.164Z,101711.59
2022-11-27T13:30:04.611Z,101706.09
2022-11-27T13:32:56.461Z,101689.63
2022-11-27T13:35:31.375Z,101670.69
2022-11-27T13:38:12.956Z,101651.81
2022-11-27T13:40:44.160Z,101641.09
2022-11-27T13:43:37.817Z,101651.00
2022-11-27T13:46:25.687Z,101655.06
2022-11-27T13:49:02.293Z,101651.19
2022-11-27T13:51:29.750Z,101653.66
2022-11-27T13:53:51.673Z,101662.41
2022-11-27T13:56:13.601Z,101666.78
2022-11-27T13:58:40.575Z,101670.88
2022-11-27T14:01:18.961Z,101673.88
2022-11-27T14:03:40.981Z,101664.78
2022-11-27T14:06:03.085Z,101661.75
2022-11-27T14:08:34.838Z,101648.03
2022-11-27T14:11:09.133Z,101652.72
2022-11-27T14:13:43.350Z,101637.84
2022-11-27T14:16:34.779Z,101647.22
2022-11-27T14:19:07.129Z,101649.16
2022-11-27T14:21:44.186Z,101635.63
2022-11-27T14:24:43.822Z,101622.72
2022-11-27T14:27:33.127Z,101621.38
2022-11-27T14:29:55.095Z,101607.66
2022-11-27T14:32:20.748Z,101598.31
2022-11-27T14:34:43.729Z,101609.59
2022-11-27T14:37:06.233Z,101608.78
2022-11-27T14:39:37.962Z,101603.81
2022-11-27T14:42:07.877Z,101608.97
2022-11-27T14:44:31.004Z,101608.16
2022-11-27T14:46:54.159Z,101605.13
2022-11-27T14:49:23.807Z,101600.97
2022-11-27T14:51:46.940Z,101602.59
2022-11-27T14:54:20.444Z,101604.22
2022-11-27T14:56:44.557Z,101598.22
2022-11-27T14:59:09.632Z,101594.94
2022-11-27T15:01:35.525Z,101585.06
2022-11-27T15:04:03.936Z,101588.66
2022-11-27T15:06:32.845Z,101584.25
2022-11-27T15:09:23.780Z,101569.19
2022-11-27T15:11:55.037Z,101581.31
2022-11-27T15:14:18.128Z,101583.25
2022-11-27T15:16:49.451Z,101582.94
2022-11-27T15:19:26.623Z,101571.94
2022-11-27T15:21:50.879Z,101578.03
2022-11-27T15:25:02.730Z,101572.56
2022-11-27T15:27:24.705Z,101570.09
2022-11-27T15:30:10.360Z,101556.06
2022-11-27T15:32:53.587Z,101553.06
2022-11-27T15:35:32.537Z,101554.50
2022-11-27T15:38:05.368Z,101552.59
2022-11-27T15:40:32.444Z,101539.94
2022-11-27T15:42:55.278Z,101535.59
2022-11-27T15:45:17.819Z,101522.66
2022-11-27T15:47:43.007Z,101526.53
2022-11-27T15:50:06.749Z,101518.59
2022-11-27T15:52:29.124Z,101526.84
2022-11-27T15:54:51.277Z,101525.50
2022-11-27T15:57:13.754Z,101520.81
2022-11-27T15:59:35.732Z,101518.06
2022-11-27T16:01:58.072Z,101517.78
2022-11-27T16:04:20.723Z,101509.03
2022-11-27T16:06:42.721Z,101515.34
2022-11-27T16:09:05.730Z,101504.66
2022-11-27T16:11:31.122Z,101499.47
2022-11-27T16:13:53.120Z,101496.72
2022-11-27T16:16:15.446Z,101498.66
2022-11-27T16:18:37.625Z,101499.16
2022-11-27T16:21:05.934Z,101492.56
2022-11-27T16:23:32.579Z,101486.25
2022-11-27T16:25:55.848Z,101488.50
2022-11-27T16:28:17.749Z,101481.06
2022-11-27T16:30:40.972Z,101466.00
2022-11-27T16:33:03.086Z,101464.06
2022-11-27T16:35:26.181Z,101458.06
2022-11-27T16:37:48.578Z,101456.97
2022-11-27T16:40:11.283Z,101458.59
2022-11-27T16:42:34.067Z,101458.59
2022-11-27T16:44:55.941Z,101444.84
2022-11-27T16:47:17.854Z,101442.13
2022-11-27T16:49:40.356Z,101452.81
2022-11-27T16:52:03.078Z,101436.84
2022-11-27T16:54:25.204Z,101439.59
2022-11-27T16:56:48.054Z,101435.72
2022-11-27T16:59:15.243Z,101429.09
2022-11-27T17:01:40.910Z,101418.13
2022-11-27T17:04:09.182Z,101419.75
2022-11-27T17:06:33.863Z,101415.88
2022-11-27T17:08:58.907Z,101417.00
2022-11-27T17:11:27.424Z,101418.34
2022-11-27T17:13:49.871Z,101410.09
2022-11-27T17:16:12.960Z,101415.59
2022-11-27T17:18:40.553Z,101408.16
2022-11-27T17:21:06.245Z,101401.56
2022-11-27T17:23:28.228Z,101403.47
2022-11-27T17:25:50.114Z,101398.00
2022-11-27T17:28:12.241Z,101397.50
2022-11-27T17:30:39.086Z,101403.00
2022-11-27T17:33:01.299Z,101399.41
2022-11-27T17:35:23.222Z,101391.69
2022-11-27T17:37:45.474Z,101400.72
2022-11-27T17:40:08.169Z,101390.88
2022-11-27T17:42:30.559Z,101399.31
2022-11-27T17:44:52.484Z,101401.50
2022-11-27T17:47:14.271Z,101395.16
2022-11-27T17:49:36.282Z,101400.66
2022-11-27T17:52:01.890Z,101396.88
2022-11-27T17:54:27.925Z,101390.88
2022-11-27T17:56:51.480Z,101396.66
2022-11-27T17:59:14.019Z,101386.81
2022-11-27T18:01:35.997Z,101383.78
2022-11-27T18:04:01.103Z,101382.13
2022-11-27T18:06:25.475Z,101383.56
2022-11-27T18:08:47.862Z,101381.09
2022-11-27T18:11:17.575Z,101380.91
2022-11-27T18:13:40.408Z,101362.00
2022-11-27T18:16:24.362Z,101365.06
2022-11-27T18:18:47.365Z,101361.00
2022-11-27T18:21:18.684Z,101352.25
2022-11-27T18:24:14.507Z,101344.31
2022-11-27T18:26:45.600Z,101337.78
2022-11-27T18:29:09.507Z,101327.44
2022-11-27T18:31:31.492Z,101329.88
2022-11-27T18:33:55.299Z,101326.31
2022-11-27T18:36:18.826Z,101315.63
2022-11-27T18:38:43.040Z,101315.63
2022-11-27T18:41:23.996Z,101310.16
2022-11-27T18:43:47.485Z,101304.16
2022-11-27T18:46:14.243Z,101303.06
2022-11-27T18:48:38.656Z,101286.59
2022-11-27T18:51:27.077Z,101291.25
2022-11-27T18:53:50.140Z,101295.41
2022-11-27T18:56:19.407Z,101293.50
2022-11-27T18:58:42.891Z,101287.19
2022-11-27T19:01:10.552Z,101293.50
2022-11-27T19:03:32.516Z,101293.19
2022-11-27T19:05:54.465Z,101289.63
2022-11-27T19:08:16.375Z,101285.28
2022-11-27T19:10:38.249Z,101295.13
2022-11-27T19:13:00.657Z,101288.50
2022-11-27T19:15:22.587Z,101284.94
2022-11-27T19:17:44.496Z,101284.94
2022-11-27T19:20:07.925Z,101282.53
2022-11-27T19:22:30.668Z,101285.28
2022-11-27T19:24:52.586Z,101278.47
2022-11-27T19:27:14.476Z,101279.25
2022-11-27T19:29:36.298Z,101274.06
2022-11-27T19:31:59.036Z,101272.13
2022-11-27T19:34:21.148Z,101276.81
2022-11-27T19:36:43.017Z,101265.84
2022-11-27T19:39:14.508Z,101256.00
2022-11-27T19:41:36.414Z,101249.19
2022-11-27T19:44:01.620Z,101249.78
2022-11-27T19:46:28.383Z,101245.94
2022-11-27T19:48:50.927Z,101238.00
2022-11-27T19:51:13.461Z,101237.50
2022-11-27T19:53:36.335Z,101233.94
2022-11-27T19:55:58.745Z,101235.88
2022-11-27T19:58:20.592Z,101228.75
2022-11-27T20:00:42.918Z,101220.50
2022-11-27T20:03:04.880Z,101221.34
2022-11-27T20:05:26.875Z,101220.22
2022-11-27T20:07:48.787Z,101219.13
2022-11-27T20:10:12.554Z,101201.00
2022-11-27T20:12:36.922Z,101202.94
2022-11-27T20:14:59.645Z,101199.06
2022-11-27T20:17:21.539Z,101191.97
2022-11-27T20:19:43.604Z,101191.97
2022-11-27T20:22:06.396Z,101190.56
2022-11-27T20:24:28.264Z,101187.00
2022-11-27T20:26:50.406Z,101187.81
2022-11-27T20:29:13.673Z,101174.09
2022-11-27T20:31:37.855Z,101168.91
2022-11-27T20:34:02.343Z,101171.13
2022-11-27T20:36:26.049Z,101170.94
2022-11-27T20:38:48.326Z,101171.25
2022-11-27T20:41:14.842Z,101171.25
2022-11-27T20:43:37.715Z,101163.84
2022-11-27T20:46:01.201Z,101159.47
2022-11-27T20:48:23.136Z,101141.06
2022-11-27T20:50:49.773Z,101153.97
2022-11-27T20:53:12.895Z,101149.63
2022-11-27T20:55:34.858Z,101150.44
2022-11-27T20:57:57.268Z,101152.03
2022-11-27T21:00:19.759Z,101152.03
2022-11-27T21:02:42.284Z,101141.06
2022-11-27T21:05:04.630Z,101140.59
2022-11-27T21:07:26.656Z,101139.47
2022-11-27T21:09:48.701Z,101142.19
2022-11-27T21:12:13.159Z,101128.47
2022-11-27T21:14:36.023Z,101124.59
2022-11-27T21:17:04.453Z,101114.75
2022-11-27T21:19:27.838Z,101108.47
2022-11-27T21:21:52.850Z,101105.72
2022-11-27T21:24:17.329Z,101099.44
2022-11-27T21:26:41.499Z,101095.56
2022-11-27T21:29:04.366Z,101103.78
2022-11-27T21:31:34.545Z,101104.94
2022-11-27T21:34:02.759Z,101090.06
2022-11-27T21:36:28.807Z,101101.84
2022-11-27T21:38:50.875Z,101099.44
2022-11-27T21:41:14.077Z,101094.75
2022-11-27T21:43:36.958Z,101082.47
2022-11-27T21:46:08.645Z,101087.63
2022-11-27T21:48:30.790Z,101088.47
2022-11-27T21:51:00.619Z,101088.66
2022-11-27T21:53:22.499Z,101082.03
2022-11-27T21:55:44.551Z,101068.66
2022-11-27T21:58:06.664Z,101073.63
2022-11-27T22:00:28.719Z,101076.88
2022-11-27T22:02:50.534Z,101071.38
2022-11-27T22:05:12.919Z,101059.28
2022-11-27T22:07:35.583Z,101065.56
2022-11-27T22:09:57.431Z,101060.59
2022-11-27T22:12:19.242Z,101060.59
2022-11-27T22:14:41.478Z,101055.91
2022-11-27T22:17:03.597Z,101048.50
2022-11-27T22:19:26.131Z,101047.69
2022-11-27T22:21:48.474Z,101040.78
2022-11-27T22:24:16.786Z,101033.38
2022-11-27T22:26:41.301Z,101025.63
2022-11-27T22:29:03.474Z,101019.31
2022-11-27T22:31:33.023Z,101034.66
2022-11-27T22:33:56.811Z,101023.38
2022-11-27T22:36:20.556Z,101018.38
2022-11-27T22:38:44.913Z,101023.56
2022-11-27T22:41:09.290Z,101022.13
2022-11-27T22:43:31.050Z,101024.59
2022-11-27T22:45:52.967Z,101019.91
2022-11-27T22:48:15.055Z,101008.13
2022-11-27T22:50:37.105Z,101011.66
2022-11-27T22:52:59.105Z,101002.31
2022-11-27T22:55:22.792Z,101000.34
2022-11-27T22:57:44.834Z,101002.00
2022-11-27T23:00:08.792Z,101006.06
2022-11-27T23:02:30.715Z,100993.44
2022-11-27T23:04:53.041Z,100996.38
2022-11-27T23:07:14.930Z,100990.59
2022-11-27T23:09:37.478Z,100985.56
2022-11-27T23:11:59.614Z,100979.78
2022-11-27T23:14:21.483Z,100986.88
2022-11-27T23:16:43.854Z,100980.28
2022-11-27T23:19:05.800Z,100977.19
2022-11-27T23:21:27.678Z,100979.94
2022-11-27T23:23:50.388Z,100966.72
2022-11-27T23:26:18.468Z,100972.72
2022-11-27T23:28:40.721Z,100974.66
2022-11-27T23:31:29.371Z,100964.47
2022-11-27T23:33:52.700Z,100956.25
2022-11-27T23:36:14.611Z,100964.47
2022-11-27T23:38:36.504Z,100960.63
2022-11-27T23:41:19.719Z,100954.00
2022-11-27T23:43:42.156Z,100966.91
2022-11-27T23:46:06.328Z,100954.50
2022-11-27T23:48:28.247Z,100955.31
2022-11-27T23:50:50.056Z,100952.25
2022-11-27T23:53:11.835Z,100951.91
2022-11-27T23:55:35.972Z,100948.06
2022-11-27T23:57:57.868Z,100950.00
